Decoded Metar for KRID ( in ) (IATA:) | Meteo·Mobile Aviation Weather
aviador You're here:

KRID Decoded Metar

in
Report Time2018-10-17 04:15:00
UTC Time2018-10-17 05:10:48
Flight Rules mvfr MVFR
Wind250° at 10 kt
W.Decomp.*RWY 24: 9.8 kt HW 1.7 kt RCW
RWY 33: 1.7 kt HW 9.8 kt LCW
W.Rank250° ranks 4
Current wind is above 250° avg. (9.0)
Visibility8047 m
Phenomena:Mist
Clouds:N/A
Expected CloudBase > 800 ft AGL from Temp-Dew spread
CeilingNone
Temp04°C
Dew Point02°C (87% RH)
AAT-1.3°C
QNH1022 hPa
Raw Report
KRID 170415Z AUTO 25010KT 5SM BR CLR 04/02 A3017 RMK AO2=

Extra information for KRID:More info

Social comments